Time;durP1;ratioP1;P1;durP2;ratioP2;P2;SDS_P1;SDS_P2;PMS_P1;PMS_P2;Temp;Humidity;BMP_temperature;BMP_pressure;BME280_temperature;BME280_humidity;BME280_pressure;Samples;Min_cycle;Max_cycle;Signal;HPM_P1;HPM_P2
2021/11/14 00:02:13;;;;;;;;;14.75;13.00;;;;;;;;5053396;28;58004;-70
2021/11/14 00:04:39;;;;;;;;;14.00;12.00;;;;;;;;5018992;28;49837;-70
2021/11/14 00:07:04;;;;;;;;;14.75;13.25;;;;;;;;5053047;28;50107;-71
2021/11/14 00:09:30;;;;;;;;;13.50;12.25;;;;;;;;5053394;28;49703;-70
2021/11/14 00:11:55;;;;;;;;;11.25;11.25;;;;;;;;5053544;28;49753;-69
2021/11/14 00:14:21;;;;;;;;;17.25;14.50;;;;;;;;5053923;28;49942;-70
2021/11/14 00:16:46;;;;;;;;;13.25;12.25;;;;;;;;5053385;28;49917;-70
2021/11/14 00:19:11;;;;;;;;;18.25;12.00;;;;;;;;5053353;28;49862;-71
2021/11/14 00:21:40;;;;;;;;;11.00;11.00;;;;;;;;5053197;28;49667;-70
2021/11/14 00:24:05;;;;;;;;;10.75;10.00;;;;;;;;5053332;28;49689;-70
2021/11/14 00:26:31;;;;;;;;;16.50;13.00;;;;;;;;5034885;28;59297;-70
2021/11/14 00:28:56;;;;;;;;;11.25;11.25;;;;;;;;5053325;28;49851;-70
2021/11/14 00:31:21;;;;;;;;;13.00;12.25;;;;;;;;5053262;28;49784;-70
2021/11/14 00:33:47;;;;;;;;;11.25;11.25;;;;;;;;5053240;28;49781;-70
2021/11/14 00:36:13;;;;;;;;;12.50;11.00;;;;;;;;5053089;28;49641;-70
2021/11/14 00:38:38;;;;;;;;;12.00;12.00;;;;;;;;5052986;28;49767;-70
2021/11/14 00:41:04;;;;;;;;;12.75;11.25;;;;;;;;5052777;28;52966;-70
2021/11/14 00:43:29;;;;;;;;;11.50;11.25;;;;;;;;5053421;28;49720;-71
2021/11/14 00:45:54;;;;;;;;;11.00;10.25;;;;;;;;5052910;28;50338;-71
2021/11/14 00:48:19;;;;;;;;;12.00;11.25;;;;;;;;5052675;28;54477;-70
2021/11/14 00:50:45;;;;;;;;;14.75;12.75;;;;;;;;5052378;28;58056;-69
2021/11/14 00:53:10;;;;;;;;;12.25;11.00;;;;;;;;5034770;28;49605;-70
2021/11/14 00:55:36;;;;;;;;;12.75;12.75;;;;;;;;5034761;28;51055;-71
2021/11/14 00:58:01;;;;;;;;;12.75;11.25;;;;;;;;5052828;28;49794;-70
2021/11/14 01:00:26;;;;;;;;;11.00;9.00;;;;;;;;5051867;28;49941;-70
2021/11/14 01:02:51;;;;;;;;;12.75;11.25;;;;;;;;5053036;28;49915;-70
2021/11/14 01:05:16;;;;;;;;;15.25;11.25;;;;;;;;5052754;28;53754;-72
2021/11/14 01:07:42;;;;;;;;;12.00;10.50;;;;;;;;5052514;28;50156;-69
2021/11/14 01:10:08;;;;;;;;;15.25;14.00;;;;;;;;5034688;28;49768;-70
2021/11/14 01:12:33;;;;;;;;;15.75;15.25;;;;;;;;5052902;28;49902;-70
2021/11/14 01:14:58;;;;;;;;;12.25;11.00;;;;;;;;5052312;28;55164;-70
2021/11/14 01:17:23;;;;;;;;;10.75;10.75;;;;;;;;5052279;28;53303;-70
2021/11/14 01:19:48;;;;;;;;;11.25;11.00;;;;;;;;5052390;28;52916;-71
2021/11/14 01:22:16;;;;;;;;;10.75;9.25;;;;;;;;5052408;28;49709;-69
2021/11/14 01:24:41;;;;;;;;;12.25;11.25;;;;;;;;5052023;28;49920;-70
2021/11/14 01:27:06;;;;;;;;;13.00;12.50;;;;;;;;5052117;28;54708;-70
2021/11/14 01:29:31;;;;;;;;;10.75;10.75;;;;;;;;5052366;28;49605;-70
2021/11/14 01:31:58;;;;;;;;;12.00;11.00;;;;;;;;5052614;28;49991;-69
2021/11/14 01:34:23;;;;;;;;;10.50;10.50;;;;;;;;5034083;28;50790;-70
2021/11/14 01:36:49;;;;;;;;;11.00;11.00;;;;;;;;5051946;28;50170;-69
2021/11/14 01:39:14;;;;;;;;;12.75;12.75;;;;;;;;5052463;28;49816;-69
2021/11/14 01:41:39;;;;;;;;;13.75;11.75;;;;;;;;5052539;28;49690;-70
2021/11/14 01:44:04;;;;;;;;;11.00;11.00;;;;;;;;5052055;28;50237;-70
2021/11/14 01:46:30;;;;;;;;;13.25;12.00;;;;;;;;5052227;28;49876;-70
2021/11/14 01:48:55;;;;;;;;;10.75;10.25;;;;;;;;5052105;28;49688;-69
2021/11/14 01:51:20;;;;;;;;;11.00;9.25;;;;;;;;5051791;28;49738;-70
2021/11/14 01:53:45;;;;;;;;;9.25;9.25;;;;;;;;5051790;28;50623;-70
2021/11/14 01:56:12;;;;;;;;;10.00;10.00;;;;;;;;5052089;28;49948;-70
2021/11/14 01:58:37;;;;;;;;;9.75;9.25;;;;;;;;5051980;28;49810;-69
2021/11/14 02:01:15;;;;;;;;;9.50;9.00;;;;;;;;5052117;28;49695;-70
2021/11/14 02:03:42;;;;;;;;;11.00;9.00;;;;;;;;5051724;28;51674;-70
2021/11/14 02:06:07;;;;;;;;;14.25;14.25;;;;;;;;5051622;28;49999;-69
2021/11/14 02:08:33;;;;;;;;;12.00;11.00;;;;;;;;5051601;28;49673;-70
2021/11/14 02:10:58;;;;;;;;;11.75;10.25;;;;;;;;5051447;28;49868;-70
2021/11/14 02:13:23;;;;;;;;;9.50;9.50;;;;;;;;5051568;28;50420;-70
2021/11/14 02:15:48;;;;;;;;;12.75;12.75;;;;;;;;5051677;28;49752;-70
2021/11/14 02:18:14;;;;;;;;;11.00;10.00;;;;;;;;5051689;28;49789;-70
2021/11/14 02:20:39;;;;;;;;;13.75;12.25;;;;;;;;5051703;28;49743;-70
2021/11/14 02:23:06;;;;;;;;;10.25;9.50;;;;;;;;5051019;28;50287;-70
2021/11/14 02:25:31;;;;;;;;;11.00;11.00;;;;;;;;5051437;28;49567;-70
2021/11/14 02:27:56;;;;;;;;;12.00;12.00;;;;;;;;5051621;28;49685;-70
2021/11/14 02:30:22;;;;;;;;;10.25;10.25;;;;;;;;5051242;28;50885;-69
2021/11/14 02:32:47;;;;;;;;;11.50;11.00;;;;;;;;5033210;28;51370;-69
2021/11/14 02:35:12;;;;;;;;;10.75;9.75;;;;;;;;5051144;28;49712;-69
2021/11/14 02:37:38;;;;;;;;;10.25;10.25;;;;;;;;5051159;28;49924;-70
2021/11/14 02:40:04;;;;;;;;;8.00;8.00;;;;;;;;5051655;28;50260;-70
2021/11/14 02:42:29;;;;;;;;;12.00;11.00;;;;;;;;5051052;28;50431;-70
2021/11/14 02:44:54;;;;;;;;;10.00;10.00;;;;;;;;5050747;28;57406;-70
2021/11/14 02:47:19;;;;;;;;;8.00;6.75;;;;;;;;5051349;28;49780;-70
2021/11/14 02:49:45;;;;;;;;;10.50;9.50;;;;;;;;5051355;28;49635;-70
2021/11/14 02:52:11;;;;;;;;;10.25;10.25;;;;;;;;5050814;28;49693;-70
2021/11/14 02:54:36;;;;;;;;;12.00;10.50;;;;;;;;5051092;28;49682;-70
2021/11/14 02:57:02;;;;;;;;;9.25;8.00;;;;;;;;5051022;28;49795;-70
2021/11/14 02:59:27;;;;;;;;;10.75;8.75;;;;;;;;5051425;28;49951;-70
2021/11/14 03:01:53;;;;;;;;;10.25;10.00;;;;;;;;5051022;28;49699;-70
2021/11/14 03:04:19;;;;;;;;;6.00;6.00;;;;;;;;5032840;28;49817;-70
2021/11/14 03:06:45;;;;;;;;;11.00;10.50;;;;;;;;5050919;28;49667;-71
2021/11/14 03:09:10;;;;;;;;;8.50;8.50;;;;;;;;5051347;28;49734;-69
2021/11/14 03:11:36;;;;;;;;;8.25;8.25;;;;;;;;5050594;28;49831;-70
2021/11/14 03:14:01;;;;;;;;;11.00;9.25;;;;;;;;5050872;28;49703;-69
2021/11/14 03:16:27;;;;;;;;;7.75;6.75;;;;;;;;5050982;28;49709;-69
2021/11/14 03:18:53;;;;;;;;;7.50;7.50;;;;;;;;5051018;28;50057;-69
2021/11/14 03:21:18;;;;;;;;;5.50;5.50;;;;;;;;5032611;28;49986;-69
2021/11/14 03:23:43;;;;;;;;;8.00;7.50;;;;;;;;5052367;28;51643;-69
2021/11/14 03:26:08;;;;;;;;;14.00;10.25;;;;;;;;5054368;28;49659;-69
2021/11/14 03:28:33;;;;;;;;;10.00;7.25;;;;;;;;5054536;28;49620;-69
2021/11/14 03:30:59;;;;;;;;;10.75;9.50;;;;;;;;5053928;28;55376;-70
2021/11/14 03:33:24;;;;;;;;;11.75;10.00;;;;;;;;5054284;28;49960;-69
2021/11/14 03:35:50;;;;;;;;;10.75;9.50;;;;;;;;5054088;28;49896;-69
2021/11/14 03:38:16;;;;;;;;;10.50;9.00;;;;;;;;5054164;28;49772;-70
2021/11/14 03:40:41;;;;;;;;;10.75;10.00;;;;;;;;5035888;28;50627;-69
2021/11/14 03:43:06;;;;;;;;;10.00;9.50;;;;;;;;5053886;28;49704;-69
2021/11/14 03:45:32;;;;;;;;;11.25;10.75;;;;;;;;5054189;28;49745;-69
2021/11/14 03:47:57;;;;;;;;;10.75;9.00;;;;;;;;5054250;28;49731;-69
2021/11/14 03:50:22;;;;;;;;;9.00;9.00;;;;;;;;5053755;28;50174;-69
2021/11/14 03:52:48;;;;;;;;;10.00;10.00;;;;;;;;5053690;28;49665;-70
2021/11/14 03:55:13;;;;;;;;;10.00;9.25;;;;;;;;5053878;28;49760;-70
2021/11/14 03:57:45;;;;;;;;;9.25;8.75;;;;;;;;5054142;28;49608;-69
2021/11/14 04:00:11;;;;;;;;;7.75;7.75;;;;;;;;5053691;28;51567;-70
2021/11/14 04:02:36;;;;;;;;;10.25;10.00;;;;;;;;5053586;28;49639;-69
2021/11/14 04:05:01;;;;;;;;;9.00;9.00;;;;;;;;5053647;28;49642;-70
2021/11/14 04:07:28;;;;;;;;;9.75;9.00;;;;;;;;5053650;28;49912;-70
2021/11/14 04:09:53;;;;;;;;;12.75;12.25;;;;;;;;5053469;28;49808;-69
2021/11/14 04:12:18;;;;;;;;;9.50;9.00;;;;;;;;5035760;28;49856;-69
2021/11/14 04:14:43;;;;;;;;;8.25;8.25;;;;;;;;5053639;28;49729;-69
2021/11/14 04:17:08;;;;;;;;;11.00;9.50;;;;;;;;5053683;28;49644;-69
2021/11/14 04:19:34;;;;;;;;;8.25;7.75;;;;;;;;5052925;28;62280;-69
2021/11/14 04:21:59;;;;;;;;;9.25;9.25;;;;;;;;5053221;28;49855;-69
2021/11/14 04:24:24;;;;;;;;;9.50;8.50;;;;;;;;5053463;28;49664;-70
2021/11/14 04:26:50;;;;;;;;;10.00;9.75;;;;;;;;5035732;28;49784;-69
2021/11/14 04:29:15;;;;;;;;;11.25;11.25;;;;;;;;5052919;28;60711;-70
2021/11/14 04:31:40;;;;;;;;;10.00;10.00;;;;;;;;5053208;28;49886;-70
2021/11/14 04:34:05;;;;;;;;;11.25;11.25;;;;;;;;5052851;28;55454;-71
2021/11/14 04:36:30;;;;;;;;;8.00;8.00;;;;;;;;5053026;28;49552;-69
2021/11/14 04:38:55;;;;;;;;;18.25;14.25;;;;;;;;5052889;28;59767;-70
2021/11/14 04:41:21;;;;;;;;;10.25;9.25;;;;;;;;5052814;28;56993;-70
2021/11/14 04:43:46;;;;;;;;;10.75;10.75;;;;;;;;5053274;28;49911;-71
2021/11/14 04:46:11;;;;;;;;;8.75;8.75;;;;;;;;5053208;28;49673;-71
2021/11/14 04:48:36;;;;;;;;;9.75;9.75;;;;;;;;5052895;28;50241;-72
2021/11/14 04:51:02;;;;;;;;;12.75;10.50;;;;;;;;5052462;28;57482;-70
2021/11/14 04:53:27;;;;;;;;;8.50;8.00;;;;;;;;5035152;28;49914;-69
2021/11/14 04:55:52;;;;;;;;;10.75;10.75;;;;;;;;5053359;28;49738;-70
2021/11/14 04:58:17;;;;;;;;;10.75;10.00;;;;;;;;5034726;28;52522;-70
2021/11/14 05:00:44;;;;;;;;;9.50;9.50;;;;;;;;5052400;28;56908;-71
2021/11/14 05:03:10;;;;;;;;;13.50;10.25;;;;;;;;5052938;28;49776;-71
2021/11/14 05:05:36;;;;;;;;;9.75;9.25;;;;;;;;5053148;28;49871;-71
2021/11/14 05:08:02;;;;;;;;;12.75;10.25;;;;;;;;5052421;28;49628;-70
2021/11/14 05:10:27;;;;;;;;;9.50;9.50;;;;;;;;5017975;28;49790;-71
2021/11/14 05:12:52;;;;;;;;;8.50;8.50;;;;;;;;5052847;28;49807;-70
2021/11/14 05:15:18;;;;;;;;;10.50;10.00;;;;;;;;5052775;28;49848;-70
2021/11/14 05:17:43;;;;;;;;;10.25;10.00;;;;;;;;5052400;28;50599;-69
2021/11/14 05:20:09;;;;;;;;;12.50;7.50;;;;;;;;5052643;28;49829;-71
2021/11/14 05:22:34;;;;;;;;;11.25;8.00;;;;;;;;5052339;28;49561;-70
2021/11/14 05:25:00;;;;;;;;;10.00;10.00;;;;;;;;5052467;28;49534;-70
2021/11/14 05:27:25;;;;;;;;;10.75;7.25;;;;;;;;5052517;28;49858;-70
2021/11/14 05:29:50;;;;;;;;;11.75;9.25;;;;;;;;5034300;28;49902;-70
2021/11/14 05:32:15;;;;;;;;;10.50;10.50;;;;;;;;5052303;28;49827;-71
2021/11/14 05:34:40;;;;;;;;;10.00;9.75;;;;;;;;5052770;28;49804;-69
2021/11/14 05:37:07;;;;;;;;;11.25;10.75;;;;;;;;5051813;28;54104;-71
2021/11/14 05:39:32;;;;;;;;;12.00;11.00;;;;;;;;5052138;28;49787;-70
2021/11/14 05:41:57;;;;;;;;;13.25;10.75;;;;;;;;5052371;28;49832;-70
2021/11/14 05:44:22;;;;;;;;;13.50;11.50;;;;;;;;5052222;28;50035;-70
2021/11/14 05:46:47;;;;;;;;;13.25;12.75;;;;;;;;5050826;28;63100;-74
2021/11/14 05:49:14;;;;;;;;;15.75;12.50;;;;;;;;5034111;28;49799;-74
2021/11/14 05:51:39;;;;;;;;;12.00;11.00;;;;;;;;5033957;28;49830;-74
2021/11/14 05:54:05;;;;;;;;;16.00;14.00;;;;;;;;5052221;28;49975;-74
2021/11/14 05:56:30;;;;;;;;;12.00;11.50;;;;;;;;5051668;28;50741;-74
2021/11/14 05:59:49;;;;;;;;;12.00;12.00;;;;;;;;5051806;28;49740;-75
2021/11/14 06:01:46;;;;;;;;;12.25;10.50;;;;;;;;5045892;28;49570;-75
2021/11/14 06:04:26;;;;;;;;;11.25;9.75;;;;;;;;5052117;28;49696;-75
2021/11/14 06:06:52;;;;;;;;;11.25;10.50;;;;;;;;5051315;28;50419;-74
2021/11/14 06:09:17;;;;;;;;;12.25;12.00;;;;;;;;5051702;28;49624;-75
2021/11/14 06:11:42;;;;;;;;;7.25;5.00;;;;;;;;5051232;28;60081;-74
2021/11/14 06:14:07;;;;;;;;;14.50;12.00;;;;;;;;5051905;28;49629;-74
2021/11/14 06:16:33;;;;;;;;;12.50;12.50;;;;;;;;5051527;28;49755;-75
2021/11/14 06:18:58;;;;;;;;;13.50;13.50;;;;;;;;5051670;28;49801;-75
2021/11/14 06:21:23;;;;;;;;;11.75;10.00;;;;;;;;5051684;28;49616;-73
2021/11/14 06:23:49;;;;;;;;;15.50;12.75;;;;;;;;5051539;28;49829;-74
2021/11/14 06:26:14;;;;;;;;;14.25;14.25;;;;;;;;5051328;28;49649;-74
2021/11/14 06:28:40;;;;;;;;;19.00;17.25;;;;;;;;5051513;28;49582;-75
2021/11/14 06:31:05;;;;;;;;;12.00;11.75;;;;;;;;5051380;28;49641;-74
2021/11/14 06:33:31;;;;;;;;;14.00;12.75;;;;;;;;5051746;28;49609;-75
2021/11/14 06:35:56;;;;;;;;;9.00;9.00;;;;;;;;5050843;28;50928;-74
2021/11/14 06:38:21;;;;;;;;;11.50;9.25;;;;;;;;5051207;28;50232;-74
2021/11/14 06:40:46;;;;;;;;;13.25;11.75;;;;;;;;5051317;28;49769;-78
2021/11/14 06:43:11;;;;;;;;;11.75;11.75;;;;;;;;5051242;28;49880;-75
2021/11/14 06:45:37;;;;;;;;;19.00;17.75;;;;;;;;5050926;28;51008;-75
2021/11/14 06:48:02;;;;;;;;;20.50;18.75;;;;;;;;5051024;28;49661;-75
2021/11/14 06:50:27;;;;;;;;;19.25;17.75;;;;;;;;5051041;28;49859;-75
2021/11/14 06:52:53;;;;;;;;;14.75;14.75;;;;;;;;5051058;28;49846;-76
2021/11/14 06:55:19;;;;;;;;;19.00;16.25;;;;;;;;5050792;28;50626;-75
2021/11/14 06:57:45;;;;;;;;;21.00;19.00;;;;;;;;5049935;28;49870;-77
2021/11/14 07:00:11;;;;;;;;;18.25;16.25;;;;;;;;5032897;28;49794;-77
2021/11/14 07:02:36;;;;;;;;;21.00;18.50;;;;;;;;5051180;28;49770;-76
2021/11/14 07:05:02;;;;;;;;;17.75;15.50;;;;;;;;5050768;28;49835;-76
2021/11/14 07:07:27;;;;;;;;;15.25;13.00;;;;;;;;5032506;28;49765;-76
2021/11/14 07:09:52;;;;;;;;;11.75;10.75;;;;;;;;5050782;28;49550;-75
2021/11/14 07:12:17;;;;;;;;;13.50;13.25;;;;;;;;5050972;28;49607;-76
2021/11/14 07:14:43;;;;;;;;;17.00;15.25;;;;;;;;5050801;28;50424;-75
2021/11/14 07:17:08;;;;;;;;;21.50;21.50;;;;;;;;5050973;28;49942;-74
2021/11/14 07:19:33;;;;;;;;;29.25;24.75;;;;;;;;5050912;28;49689;-76
2021/11/14 07:21:59;;;;;;;;;35.25;33.50;;;;;;;;5050780;28;49554;-75
2021/11/14 07:24:24;;;;;;;;;31.00;27.75;;;;;;;;5050106;28;50409;-75
2021/11/14 07:26:49;;;;;;;;;28.50;27.25;;;;;;;;5050548;28;49590;-75
2021/11/14 07:29:15;;;;;;;;;22.50;22.25;;;;;;;;5050393;28;52174;-75
2021/11/14 07:31:40;;;;;;;;;22.25;20.00;;;;;;;;5050791;28;49982;-75
2021/11/14 07:34:06;;;;;;;;;20.50;16.50;;;;;;;;5032332;28;49822;-74
2021/11/14 07:36:31;;;;;;;;;24.00;22.25;;;;;;;;5031901;28;49661;-78
2021/11/14 07:38:56;;;;;;;;;18.50;17.50;;;;;;;;5032533;28;50040;-75
2021/11/14 07:41:22;;;;;;;;;25.50;25.25;;;;;;;;5050701;28;49787;-77
2021/11/14 07:43:47;;;;;;;;;20.25;17.00;;;;;;;;5050320;28;49768;-77
2021/11/14 07:46:12;;;;;;;;;23.50;20.00;;;;;;;;5050325;28;49585;-76
2021/11/14 07:48:37;;;;;;;;;22.75;18.25;;;;;;;;5050594;28;49964;-76
2021/11/14 07:51:03;;;;;;;;;23.50;18.75;;;;;;;;5050404;28;49942;-76
2021/11/14 07:53:28;;;;;;;;;17.00;17.00;;;;;;;;5050243;28;50342;-77
2021/11/14 07:55:54;;;;;;;;;20.25;19.00;;;;;;;;5050243;28;49853;-75
2021/11/14 07:58:19;;;;;;;;;13.75;12.50;;;;;;;;5050239;28;49910;-75
2021/11/14 08:00:44;;;;;;;;;11.00;11.00;;;;;;;;5032422;28;49836;-76
2021/11/14 08:03:13;;;;;;;;;12.50;10.00;;;;;;;;5050087;28;50302;-75
2021/11/14 08:05:38;;;;;;;;;7.75;7.75;;;;;;;;5050272;28;49808;-76
2021/11/14 08:08:04;;;;;;;;;8.50;7.75;;;;;;;;5049789;28;49766;-76
2021/11/14 08:10:31;;;;;;;;;9.00;8.50;;;;;;;;5053020;28;49851;-76
2021/11/14 08:12:56;;;;;;;;;10.00;9.00;;;;;;;;5053359;28;50014;-75
2021/11/14 08:15:22;;;;;;;;;9.50;6.50;;;;;;;;5053324;28;49920;-74
2021/11/14 08:17:47;;;;;;;;;12.50;12.25;;;;;;;;5035421;28;49588;-75
2021/11/14 08:20:12;;;;;;;;;8.00;7.75;;;;;;;;5053681;28;49734;-74
2021/11/14 08:22:38;;;;;;;;;9.00;9.00;;;;;;;;5053020;28;49704;-67
2021/11/14 08:25:04;;;;;;;;;13.25;11.50;;;;;;;;5053228;28;49660;-68
2021/11/14 08:27:30;;;;;;;;;10.00;7.25;;;;;;;;5053382;28;49551;-68
2021/11/14 08:29:55;;;;;;;;;10.75;8.00;;;;;;;;5053413;28;50051;-69
2021/11/14 08:32:20;;;;;;;;;8.75;8.75;;;;;;;;5053165;28;49667;-67
2021/11/14 08:34:46;;;;;;;;;12.00;11.00;;;;;;;;5053221;28;49836;-67
2021/11/14 08:37:11;;;;;;;;;8.75;7.25;;;;;;;;5052933;28;49836;-67
2021/11/14 08:39:36;;;;;;;;;9.00;9.00;;;;;;;;5053456;28;49964;-67
2021/11/14 08:42:02;;;;;;;;;10.00;8.00;;;;;;;;5053190;28;51398;-67
2021/11/14 08:44:28;;;;;;;;;10.25;7.75;;;;;;;;5053222;28;49615;-68
2021/11/14 08:46:53;;;;;;;;;8.75;6.50;;;;;;;;5052907;28;49707;-68
2021/11/14 08:49:18;;;;;;;;;4.00;3.25;;;;;;;;5053303;28;49538;-68
2021/11/14 08:51:44;;;;;;;;;7.50;7.50;;;;;;;;5052481;28;50404;-68
2021/11/14 08:54:09;;;;;;;;;11.50;11.50;;;;;;;;5054900;28;49732;-68
2021/11/14 08:56:36;;;;;;;;;8.25;8.25;;;;;;;;5052738;28;53380;-69
2021/11/14 08:59:01;;;;;;;;;1.25;1.25;;;;;;;;5053211;28;49715;-70
2021/11/14 09:01:26;;;;;;;;;9.75;8.50;;;;;;;;5053140;28;49773;-69
2021/11/14 09:03:51;;;;;;;;;9.50;7.50;;;;;;;;5052527;28;59606;-69
2021/11/14 09:06:17;;;;;;;;;7.50;7.50;;;;;;;;5060433;28;49721;-70
2021/11/14 09:08:42;;;;;;;;;6.50;5.75;;;;;;;;5059518;28;49628;-70
2021/11/14 09:11:07;;;;;;;;;5.50;5.00;;;;;;;;5052858;28;50201;-79
2021/11/14 09:13:33;;;;;;;;;4.50;4.00;;;;;;;;5037429;28;49812;-81
2021/11/14 09:15:58;;;;;;;;;5.75;5.75;;;;;;;;5045193;28;50091;-72
2021/11/14 09:18:24;;;;;;;;;5.25;4.75;;;;;;;;5070436;28;49708;-79
2021/11/14 09:20:49;;;;;;;;;6.00;6.00;;;;;;;;5052915;27;52322;-82
2021/11/14 09:23:14;;;;;;;;;5.00;5.00;;;;;;;;5073660;28;49672;-72
2021/11/14 09:25:40;;;;;;;;;4.50;4.50;;;;;;;;5072400;27;49993;-77
2021/11/14 09:28:06;;;;;;;;;6.25;5.00;;;;;;;;5072781;28;49855;-74
2021/11/14 09:30:31;;;;;;;;;3.50;3.50;;;;;;;;5054441;28;50664;-74
2021/11/14 09:32:56;;;;;;;;;4.00;4.00;;;;;;;;5037508;28;49733;-75
2021/11/14 09:35:22;;;;;;;;;4.50;4.00;;;;;;;;5072476;28;49774;-73
2021/11/14 09:37:47;;;;;;;;;4.75;4.75;;;;;;;;5072353;28;49782;-69
2021/11/14 09:40:12;;;;;;;;;4.50;4.50;;;;;;;;5073393;28;60048;-70
2021/11/14 09:42:38;;;;;;;;;4.00;3.25;;;;;;;;5072489;28;49744;-70
2021/11/14 09:45:04;;;;;;;;;4.00;4.00;;;;;;;;5072398;28;49546;-73
2021/11/14 09:47:29;;;;;;;;;4.00;4.00;;;;;;;;5072571;28;49740;-73
2021/11/14 09:49:57;;;;;;;;;5.50;4.00;;;;;;;;5071984;28;49862;-75
2021/11/14 09:52:23;;;;;;;;;9.00;5.00;;;;;;;;5072090;28;49704;-72
2021/11/14 09:54:48;;;;;;;;;4.25;4.00;;;;;;;;5072479;28;49668;-74
2021/11/14 09:57:13;;;;;;;;;5.25;5.25;;;;;;;;5072915;28;50041;-67
2021/11/14 09:59:38;;;;;;;;;8.25;6.50;;;;;;;;5072042;28;51282;-68
2021/11/14 10:02:04;;;;;;;;;3.25;3.25;;;;;;;;5071682;28;59769;-70
2021/11/14 10:04:29;;;;;;;;;8.00;6.00;;;;;;;;5072173;28;49778;-71
2021/11/14 10:06:56;;;;;;;;;5.50;5.25;;;;;;;;5072887;28;50002;-70
2021/11/14 10:09:43;;;;;;;;;9.25;8.00;;;;;;;;5079094;28;49795;-72
2021/11/14 10:12:13;;;;;;;;;7.50;5.75;;;;;;;;5088234;28;49262;-72
2021/11/14 10:14:38;;;;;;;;;11.75;8.75;;;;;;;;5088399;28;49277;-70
2021/11/14 10:17:13;;;;;;;;;13.50;10.75;;;;;;;;5089497;28;49539;-71
2021/11/14 10:19:38;;;;;;;;;9.50;9.50;;;;;;;;5088684;28;50061;-69
2021/11/14 10:22:04;;;;;;;;;11.25;9.50;;;;;;;;5078725;28;57135;-70
2021/11/14 10:24:29;;;;;;;;;9.75;9.75;;;;;;;;5071599;28;49757;-74
2021/11/14 10:26:54;;;;;;;;;10.00;6.50;;;;;;;;5053886;28;49656;-74
2021/11/14 10:29:19;;;;;;;;;6.00;6.00;;;;;;;;5071831;28;50013;-74
2021/11/14 10:31:45;;;;;;;;;8.75;8.75;;;;;;;;5035755;28;49698;-78
2021/11/14 10:34:10;;;;;;;;;10.50;7.50;;;;;;;;5071774;28;50403;-71
2021/11/14 10:36:35;;;;;;;;;6.75;4.75;;;;;;;;5071627;28;49653;-71
2021/11/14 10:39:05;;;;;;;;;11.75;10.50;;;;;;;;5071228;28;50394;-71
2021/11/14 10:41:30;;;;;;;;;9.50;9.50;;;;;;;;5071687;28;49566;-70
2021/11/14 10:44:08;;;;;;;;;14.25;14.25;;;;;;;;5071517;28;49526;-71
2021/11/14 10:46:34;;;;;;;;;10.75;10.75;;;;;;;;5053525;28;49813;-72
2021/11/14 10:49:04;;;;;;;;;13.50;12.75;;;;;;;;5071152;28;49784;-71
2021/11/14 10:51:29;;;;;;;;;11.50;11.00;;;;;;;;5071115;28;49719;-72
2021/11/14 10:53:54;;;;;;;;;15.00;12.00;;;;;;;;5071439;28;50167;-72
2021/11/14 10:56:20;;;;;;;;;5.75;5.75;;;;;;;;5071239;28;49681;-71
2021/11/14 10:58:45;;;;;;;;;11.25;11.25;;;;;;;;5052871;28;50568;-70
2021/11/14 11:01:11;;;;;;;;;13.00;9.25;;;;;;;;5071343;28;49644;-71
2021/11/14 11:03:57;;;;;;;;;7.00;7.00;;;;;;;;5071775;28;50012;-71
2021/11/14 11:06:26;;;;;;;;;7.50;7.50;;;;;;;;5070553;28;49661;-72
2021/11/14 11:08:51;;;;;;;;;14.00;12.00;;;;;;;;5071076;28;50595;-71
2021/11/14 11:11:19;;;;;;;;;9.50;9.50;;;;;;;;5070936;28;49676;-72
2021/11/14 11:13:45;;;;;;;;;14.00;13.00;;;;;;;;5076946;28;49748;-71
2021/11/14 11:16:14;;;;;;;;;13.00;13.00;;;;;;;;5071649;28;49827;-71
2021/11/14 11:18:41;;;;;;;;;15.25;12.00;;;;;;;;5082899;28;49665;-71
2021/11/14 11:21:06;;;;;;;;;12.50;11.00;;;;;;;;5070783;28;50101;-71
2021/11/14 11:23:36;;;;;;;;;13.25;10.75;;;;;;;;5074894;28;50300;-77
2021/11/14 11:26:02;;;;;;;;;13.50;12.25;;;;;;;;5074541;28;49826;-68
2021/11/14 11:28:32;;;;;;;;;16.25;15.25;;;;;;;;5079933;28;49933;-67
2021/11/14 11:31:04;;;;;;;;;3.75;0.75;;;;;;;;5088169;28;49304;-66
2021/11/14 11:33:29;;;;;;;;;13.00;13.00;;;;;;;;5085362;28;49675;-67
2021/11/14 11:35:55;;;;;;;;;18.50;18.50;;;;;;;;5084096;28;49499;-67
2021/11/14 11:38:21;;;;;;;;;14.25;12.75;;;;;;;;5080349;27;50783;-72
2021/11/14 11:40:49;;;;;;;;;12.00;12.00;;;;;;;;5085244;27;49564;-72
2021/11/14 11:43:14;;;;;;;;;18.50;16.00;;;;;;;;5086457;27;49477;-72
2021/11/14 11:45:40;;;;;;;;;17.75;13.50;;;;;;;;5076018;28;49812;-71
2021/11/14 11:48:11;;;;;;;;;13.25;11.75;;;;;;;;5074277;28;49948;-72
2021/11/14 11:50:36;;;;;;;;;15.25;14.25;;;;;;;;5054043;28;49863;-75
2021/11/14 11:53:02;;;;;;;;;13.50;9.75;;;;;;;;5072959;27;50198;-71
2021/11/14 11:55:29;;;;;;;;;13.75;13.00;;;;;;;;5072746;27;49949;-72
2021/11/14 11:57:55;;;;;;;;;11.50;10.25;;;;;;;;5075110;28;49796;-71
2021/11/14 12:00:21;;;;;;;;;13.25;11.50;;;;;;;;5074536;28;49653;-70
2021/11/14 12:02:46;;;;;;;;;16.75;14.50;;;;;;;;5055230;28;49628;-71
2021/11/14 12:05:12;;;;;;;;;13.50;13.00;;;;;;;;5071946;28;49649;-71
2021/11/14 12:07:50;;;;;;;;;14.00;13.25;;;;;;;;5072971;28;50867;-68
2021/11/14 12:10:17;;;;;;;;;10.25;8.00;;;;;;;;5037514;28;49988;-70
2021/11/14 12:13:04;;;;;;;;;6.00;6.00;;;;;;;;5064809;27;49923;-68
2021/11/14 12:15:30;;;;;;;;;11.50;11.25;;;;;;;;5052624;28;49725;-67
2021/11/14 12:17:59;;;;;;;;;12.25;11.50;;;;;;;;5061498;28;50593;-68
2021/11/14 12:20:25;;;;;;;;;13.75;12.25;;;;;;;;5081344;28;49577;-73
2021/11/14 12:22:54;;;;;;;;;13.25;13.00;;;;;;;;5091159;28;49190;-73
2021/11/14 12:25:23;;;;;;;;;15.25;13.75;;;;;;;;5090812;28;49319;-74
2021/11/14 12:27:58;;;;;;;;;17.25;14.00;;;;;;;;5090716;28;49472;-75
2021/11/14 12:30:23;;;;;;;;;17.25;14.75;;;;;;;;5091027;28;49554;-77
2021/11/14 12:32:49;;;;;;;;;20.50;19.25;;;;;;;;5091398;28;49331;-74
2021/11/14 12:35:22;;;;;;;;;15.50;13.00;;;;;;;;5072185;28;49744;-77
2021/11/14 12:37:53;;;;;;;;;18.50;14.25;;;;;;;;5084489;28;50083;-76
2021/11/14 12:40:22;;;;;;;;;17.25;15.00;;;;;;;;5088520;28;49472;-73
2021/11/14 12:42:51;;;;;;;;;16.75;15.25;;;;;;;;5090210;27;49505;-74
2021/11/14 12:45:16;;;;;;;;;17.50;15.50;;;;;;;;5090764;27;49408;-72
2021/11/14 12:47:42;;;;;;;;;18.50;15.50;;;;;;;;5088480;27;49562;-79
2021/11/14 12:50:17;;;;;;;;;16.75;15.25;;;;;;;;5070044;28;49567;-74
2021/11/14 12:52:43;;;;;;;;;20.50;18.75;;;;;;;;5070123;28;49388;-72
2021/11/14 12:55:09;;;;;;;;;14.75;14.00;;;;;;;;5070042;28;49534;-72
2021/11/14 12:57:38;;;;;;;;;17.25;14.75;;;;;;;;5062154;27;49948;-70
2021/11/14 13:00:04;;;;;;;;;23.25;17.00;;;;;;;;5082999;28;49628;-73
2021/11/14 13:02:30;;;;;;;;;17.75;16.25;;;;;;;;5056064;28;50502;-72
2021/11/14 13:05:05;;;;;;;;;19.50;18.25;;;;;;;;5063072;28;49670;-72
2021/11/14 13:07:31;;;;;;;;;15.25;14.50;;;;;;;;5074477;27;49769;-75
2021/11/14 13:09:56;;;;;;;;;14.25;12.25;;;;;;;;5072612;28;49753;-75
2021/11/14 13:12:22;;;;;;;;;17.75;17.50;;;;;;;;5072115;28;49679;-74
2021/11/14 13:14:48;;;;;;;;;17.75;15.75;;;;;;;;5073302;28;49822;-76
2021/11/14 13:17:13;;;;;;;;;10.50;10.50;;;;;;;;5072771;28;50564;-77
2021/11/14 13:19:39;;;;;;;;;16.50;11.25;;;;;;;;5072407;28;49601;-74
2021/11/14 13:22:04;;;;;;;;;20.50;16.25;;;;;;;;5072234;27;49724;-76
2021/11/14 13:24:29;;;;;;;;;19.25;15.75;;;;;;;;5053702;28;49757;-72
2021/11/14 13:27:05;;;;;;;;;20.75;17.75;;;;;;;;5071857;28;51102;-69
2021/11/14 13:29:32;;;;;;;;;19.00;16.25;;;;;;;;5075316;28;49864;-70
2021/11/14 13:31:58;;;;;;;;;20.00;14.50;;;;;;;;5072270;28;49630;-73
2021/11/14 13:34:24;;;;;;;;;19.00;17.00;;;;;;;;5071771;28;49884;-71
2021/11/14 13:36:57;;;;;;;;;20.00;16.25;;;;;;;;5071521;27;49951;-73
2021/11/14 13:39:26;;;;;;;;;18.75;17.75;;;;;;;;5071941;28;49803;-72
2021/11/14 13:41:55;;;;;;;;;20.25;18.75;;;;;;;;5072302;28;49791;-71
2021/11/14 13:44:27;;;;;;;;;19.25;17.75;;;;;;;;5071390;28;49798;-71
2021/11/14 13:46:58;;;;;;;;;17.75;15.25;;;;;;;;5053451;28;50618;-70
2021/11/14 13:49:25;;;;;;;;;18.50;17.50;;;;;;;;5053487;28;49842;-70
2021/11/14 13:51:50;;;;;;;;;17.75;14.75;;;;;;;;5072186;27;49803;-73
2021/11/14 13:54:18;;;;;;;;;16.25;14.50;;;;;;;;5035949;28;49922;-73
2021/11/14 13:56:43;;;;;;;;;20.25;19.25;;;;;;;;5036349;28;51498;-72
2021/11/14 13:59:09;;;;;;;;;15.50;15.50;;;;;;;;5072125;28;50006;-72
2021/11/14 14:01:34;;;;;;;;;14.00;13.25;;;;;;;;5071802;28;49545;-72
2021/11/14 14:04:00;;;;;;;;;15.00;12.00;;;;;;;;5071137;28;49958;-71
2021/11/14 14:06:29;;;;;;;;;16.25;14.00;;;;;;;;5071010;28;50834;-73
2021/11/14 14:08:54;;;;;;;;;16.75;15.25;;;;;;;;5070809;28;49647;-73
2021/11/14 14:11:20;;;;;;;;;22.50;17.00;;;;;;;;5071563;28;49787;-73
2021/11/14 14:13:58;;;;;;;;;16.50;15.75;;;;;;;;5071208;27;49697;-73
2021/11/14 14:16:24;;;;;;;;;15.00;14.50;;;;;;;;5071401;27;49815;-73
2021/11/14 14:18:49;;;;;;;;;16.50;16.00;;;;;;;;5071295;27;49650;-73
2021/11/14 14:21:14;;;;;;;;;18.50;17.25;;;;;;;;5071131;28;49922;-72